Time;durP1;ratioP1;P1;durP2;ratioP2;P2;SDS_P1;SDS_P2;PMS_P1;PMS_P2;Temp;Humidity;BMP_temperature;BMP_pressure;BME280_temperature;BME280_humidity;BME280_pressure;Samples;Min_cycle;Max_cycle;Signal;HPM_P1;HPM_P2
2022/05/03 00:02:19;;;;;;;4.03;3.67;;;8.30;99.90;;;;;;5079714;28;20036;-80
2022/05/03 00:05:04;;;;;;;4.57;4.18;;;8.30;99.90;;;;;;5080508;28;20084;-80
2022/05/03 00:07:49;;;;;;;8.85;4.20;;;8.20;99.90;;;;;;5080200;28;20101;-79
2022/05/03 00:10:20;;;;;;;5.22;4.72;;;8.20;99.90;;;;;;5044713;28;20068;-80
2022/05/03 00:12:53;;;;;;;11.43;4.53;;;8.20;99.90;;;;;;5061793;28;20044;-79
2022/05/03 00:15:20;;;;;;;7.38;4.72;;;8.10;99.90;;;;;;5079001;28;20560;-79
2022/05/03 00:17:47;;;;;;;6.93;6.00;;;8.10;99.90;;;;;;5079996;28;20764;-79
2022/05/03 00:20:14;;;;;;;5.03;4.57;;;8.10;99.90;;;;;;5061908;28;20090;-80
2022/05/03 00:22:40;;;;;;;6.10;4.88;;;8.00;99.90;;;;;;5079549;28;20036;-79
2022/05/03 00:25:06;;;;;;;7.05;4.97;;;8.00;99.90;;;;;;5079617;28;20542;-81
2022/05/03 00:27:34;;;;;;;4.35;4.05;;;7.90;99.90;;;;;;5061511;28;20494;-80
2022/05/03 00:29:59;;;;;;;5.75;5.22;;;7.90;99.90;;;;;;5061901;28;20123;-80
2022/05/03 00:32:26;;;;;;;3.70;3.40;;;7.90;99.90;;;;;;5078521;28;20139;-80
2022/05/03 00:34:53;;;;;;;3.65;3.35;;;7.90;99.90;;;;;;5061312;28;20343;-80
2022/05/03 00:37:19;;;;;;;4.82;4.45;;;7.90;99.90;;;;;;5079774;28;20340;-79
2022/05/03 00:39:45;;;;;;;4.13;3.83;;;7.90;99.90;;;;;;5079401;28;20036;-79
2022/05/03 00:42:27;;;;;;;4.05;3.65;;;7.90;99.90;;;;;;5079231;28;20044;-80
2022/05/03 00:45:04;;;;;;;6.10;5.30;;;7.90;99.90;;;;;;5080028;28;20048;-79
2022/05/03 00:48:08;;;;;;;4.30;3.92;;;7.90;99.90;;;;;;5058574;28;20080;-79
2022/05/03 00:50:34;;;;;;;4.70;4.28;;;7.80;99.90;;;;;;5058052;28;20106;-80
2022/05/03 00:53:05;;;;;;;5.03;4.63;;;7.80;99.90;;;;;;5059435;28;20045;-80
2022/05/03 00:55:37;;;;;;;5.57;4.45;;;7.80;99.90;;;;;;5057698;28;20691;-79
2022/05/03 00:58:33;;;;;;;4.82;4.43;;;7.80;99.90;;;;;;5041253;28;20041;-80
2022/05/03 01:01:09;;;;;;;5.35;4.85;;;7.80;99.90;;;;;;5057659;28;20064;-80
2022/05/03 01:03:50;;;;;;;4.45;4.07;;;7.70;99.90;;;;;;5058118;28;20075;-79
2022/05/03 01:06:54;;;;;;;5.43;4.93;;;7.70;99.90;;;;;;5057956;28;20048;-80
2022/05/03 01:09:30;;;;;;;4.07;3.67;;;7.70;99.90;;;;;;5058443;28;20515;-80
2022/05/03 01:12:23;;;;;;;4.13;3.83;;;7.70;99.90;;;;;;5059639;28;20119;-79
2022/05/03 01:15:09;;;;;;;10.23;4.28;;;7.70;99.90;;;;;;5058194;28;20044;-79
2022/05/03 01:17:44;;;;;;;4.78;4.40;;;7.70;99.90;;;;;;5041096;28;20244;-80
2022/05/03 01:20:18;;;;;;;3.40;3.10;;;7.70;99.90;;;;;;5057776;28;20052;-80
2022/05/03 01:23:06;;;;;;;4.20;3.90;;;7.60;99.90;;;;;;5059461;28;20040;-80
2022/05/03 01:26:01;;;;;;;5.90;4.43;;;7.60;99.90;;;;;;5057444;28;20049;-79
2022/05/03 01:29:04;;;;;;;6.00;5.35;;;7.60;99.90;;;;;;5059729;28;20398;-79
2022/05/03 01:31:29;;;;;;;4.82;4.43;;;7.60;99.90;;;;;;5058567;28;20052;-79
2022/05/03 01:34:01;;;;;;;4.47;4.05;;;7.60;99.90;;;;;;5059079;28;20041;-79
2022/05/03 01:37:08;;;;;;;5.28;4.82;;;7.60;99.90;;;;;;5059316;28;20076;-79
2022/05/03 01:39:57;;;;;;;6.63;5.20;;;7.50;99.90;;;;;;5059188;28;20128;-80
2022/05/03 01:42:26;;;;;;;5.00;4.50;;;7.50;99.90;;;;;;5054187;28;20049;-80
2022/05/03 01:45:08;;;;;;;5.53;5.13;;;7.50;99.90;;;;;;5060469;28;20040;-79
2022/05/03 01:47:49;;;;;;;4.18;3.78;;;7.50;99.90;;;;;;5082478;28;20109;-80
2022/05/03 01:50:45;;;;;;;5.28;4.78;;;7.50;99.90;;;;;;5082573;28;20040;-79
2022/05/03 01:53:19;;;;;;;8.75;5.93;;;7.60;99.90;;;;;;5082031;28;20413;-79
2022/05/03 01:56:25;;;;;;;4.90;4.50;;;7.60;99.90;;;;;;5064344;28;20052;-80
2022/05/03 01:59:06;;;;;;;5.78;4.45;;;7.60;99.90;;;;;;5082925;28;20051;-79
2022/05/03 02:01:40;;;;;;;5.35;4.95;;;7.70;99.90;;;;;;5082103;28;20375;-80
2022/05/03 02:04:42;;;;;;;5.38;4.88;;;7.70;99.90;;;;;;5082518;28;20088;-79
2022/05/03 02:07:19;;;;;;;5.77;5.30;;;7.70;99.90;;;;;;5064526;28;20044;-80
2022/05/03 02:10:06;;;;;;;5.63;5.22;;;7.70;99.90;;;;;;5082801;28;20074;-80
2022/05/03 02:12:32;;;;;;;7.05;5.07;;;7.80;99.90;;;;;;5082288;28;20362;-80
2022/05/03 02:15:07;;;;;;;4.80;4.28;;;7.80;99.90;;;;;;5063764;28;20051;-79
2022/05/03 02:18:24;;;;;;;7.68;6.82;;;7.80;99.90;;;;;;5081988;28;20043;-80
2022/05/03 02:20:56;;;;;;;5.40;4.90;;;7.80;99.90;;;;;;5019803;28;20059;-79
2022/05/03 02:23:43;;;;;;;6.72;5.22;;;7.90;99.90;;;;;;5082025;28;20112;-80
2022/05/03 02:26:24;;;;;;;9.65;6.20;;;7.90;99.90;;;;;;5064267;28;20056;-80
2022/05/03 02:29:15;;;;;;;6.93;6.22;;;8.00;99.90;;;;;;5064008;28;20048;-79
2022/05/03 02:31:57;;;;;;;6.13;5.13;;;8.00;99.90;;;;;;5081039;28;20482;-80
2022/05/03 02:34:42;;;;;;;7.50;6.80;;;8.00;99.90;;;;;;5082046;28;20501;-79
2022/05/03 02:37:25;;;;;;;7.03;5.90;;;8.10;99.90;;;;;;5063281;28;20529;-79
2022/05/03 02:39:59;;;;;;;10.27;6.13;;;8.10;99.90;;;;;;5081770;28;20059;-79
2022/05/03 02:42:25;;;;;;;7.10;6.05;;;8.10;99.90;;;;;;5081560;28;20107;-79
2022/05/03 02:45:00;;;;;;;6.05;5.45;;;8.20;99.90;;;;;;5081312;28;20510;-80
2022/05/03 02:47:43;;;;;;;7.35;6.65;;;8.20;99.90;;;;;;5060519;28;20592;-79
2022/05/03 02:50:13;;;;;;;9.10;7.20;;;8.20;99.90;;;;;;5043062;28;20036;-80
2022/05/03 02:52:49;;;;;;;8.30;6.90;;;8.30;99.90;;;;;;5058994;28;20078;-79
2022/05/03 02:55:38;;;;;;;11.57;7.93;;;8.30;99.90;;;;;;5060780;28;20057;-80
2022/05/03 02:58:25;;;;;;;10.95;7.30;;;8.30;99.90;;;;;;5060256;28;20491;-80
2022/05/03 03:04:00;;;;;;;11.43;7.30;;;8.40;99.90;;;;;;5061399;28;20526;-79
2022/05/03 03:06:33;;;;;;;17.23;7.82;;;8.40;99.90;;;;;;5061453;28;20292;-80
2022/05/03 03:09:00;;;;;;;7.43;6.70;;;8.40;99.90;;;;;;5061774;28;20344;-79
2022/05/03 03:11:37;;;;;;;12.10;8.05;;;8.40;99.90;;;;;;5043657;28;20666;-79
2022/05/03 03:14:21;;;;;;;9.20;5.95;;;8.40;99.90;;;;;;5060757;28;20105;-80
2022/05/03 03:16:54;;;;;;;8.95;7.55;;;8.50;99.90;;;;;;5059018;28;20048;-80
2022/05/03 03:19:38;;;;;;;9.35;7.43;;;8.50;99.90;;;;;;5059311;28;20371;-79
2022/05/03 03:22:11;;;;;;;8.70;7.75;;;8.50;99.90;;;;;;5061358;28;20075;-80
2022/05/03 03:24:38;;;;;;;13.27;9.80;;;8.50;99.90;;;;;;5060735;28;20033;-80
2022/05/03 03:27:08;;;;;;;8.05;7.30;;;8.50;99.90;;;;;;5060506;28;20093;-79
2022/05/03 03:29:36;;;;;;;7.97;7.38;;;8.50;99.90;;;;;;5060762;28;20119;-80
2022/05/03 03:32:05;;;;;;;9.05;7.97;;;8.60;99.90;;;;;;5060369;28;20143;-80
2022/05/03 03:34:33;;;;;;;12.57;9.60;;;8.50;99.90;;;;;;5060990;28;20119;-79
2022/05/03 03:37:01;;;;;;;16.08;10.57;;;8.60;99.90;;;;;;5060745;28;20458;-79
2022/05/03 03:39:30;;;;;;;10.45;7.82;;;8.60;99.90;;;;;;5059633;28;20086;-79
2022/05/03 03:42:01;;;;;;;10.00;8.90;;;8.60;99.90;;;;;;5060640;28;20737;-80
2022/05/03 03:44:28;;;;;;;10.07;9.07;;;8.60;99.90;;;;;;5061291;28;20445;-80
2022/05/03 03:46:54;;;;;;;11.13;8.73;;;8.60;99.90;;;;;;5073385;28;20036;-80
2022/05/03 03:49:20;;;;;;;8.13;6.90;;;8.60;99.90;;;;;;5080210;28;20063;-80
2022/05/03 03:51:47;;;;;;;7.80;6.40;;;8.70;99.90;;;;;;5080662;28;20040;-80
2022/05/03 03:54:13;;;;;;;12.48;8.57;;;8.70;99.90;;;;;;5079897;28;20568;-79
2022/05/03 03:56:40;;;;;;;9.55;8.68;;;8.70;99.90;;;;;;5080768;28;20075;-80
2022/05/03 03:59:06;;;;;;;7.30;6.65;;;8.70;99.90;;;;;;5062017;28;20044;-80
2022/05/03 04:01:31;;;;;;;7.75;6.85;;;8.70;99.90;;;;;;5079464;28;20047;-80
2022/05/03 04:03:58;;;;;;;8.32;7.38;;;8.70;99.90;;;;;;5080567;28;20047;-79
2022/05/03 04:06:24;;;;;;;8.38;7.53;;;8.70;99.90;;;;;;5079691;28;20551;-80
2022/05/03 04:08:49;;;;;;;7.40;6.68;;;8.80;99.90;;;;;;5079816;28;20059;-79
2022/05/03 04:11:18;;;;;;;9.88;7.13;;;8.80;99.90;;;;;;5080131;28;20048;-80
2022/05/03 04:13:45;;;;;;;11.32;8.93;;;8.80;99.90;;;;;;5062061;28;20048;-80
2022/05/03 04:16:10;;;;;;;9.68;7.43;;;8.80;99.90;;;;;;5060680;28;20498;-79
2022/05/03 04:18:46;;;;;;;8.55;6.78;;;8.80;99.90;;;;;;5080417;28;20059;-80
2022/05/03 04:21:16;;;;;;;14.02;7.90;;;8.80;99.90;;;;;;5079441;28;20550;-79
2022/05/03 04:23:43;;;;;;;9.57;6.70;;;8.80;99.90;;;;;;5062186;28;20046;-80
2022/05/03 04:26:11;;;;;;;7.18;6.53;;;8.80;99.90;;;;;;5079307;28;20044;-80
2022/05/03 04:28:38;;;;;;;9.40;8.50;;;8.80;99.90;;;;;;5080029;28;20058;-79
2022/05/03 04:31:04;;;;;;;10.38;9.45;;;8.80;99.90;;;;;;5078669;28;20070;-81
2022/05/03 04:33:29;;;;;;;11.43;9.38;;;8.90;99.90;;;;;;5080300;28;20048;-79
2022/05/03 04:35:55;;;;;;;12.98;9.65;;;8.80;99.90;;;;;;5079521;28;20082;-79
2022/05/03 04:38:20;;;;;;;9.98;8.20;;;8.90;99.90;;;;;;5061529;28;20436;-80
2022/05/03 04:40:46;;;;;;;11.25;8.75;;;8.90;99.90;;;;;;5079829;28;20562;-80
2022/05/03 04:43:12;;;;;;;11.13;8.15;;;8.90;99.90;;;;;;5079433;28;20367;-79
2022/05/03 04:45:37;;;;;;;12.18;8.38;;;8.90;99.90;;;;;;5078838;28;20062;-79
2022/05/03 04:48:03;;;;;;;10.98;9.85;;;8.90;99.90;;;;;;5079414;28;20079;-80
2022/05/03 04:50:29;;;;;;;9.32;8.57;;;8.90;99.90;;;;;;5079702;28;20036;-80
2022/05/03 04:52:56;;;;;;;11.38;10.23;;;9.00;99.90;;;;;;5079843;28;20128;-79
2022/05/03 04:55:23;;;;;;;13.48;10.10;;;9.00;99.90;;;;;;5078947;28;20051;-79
2022/05/03 04:57:49;;;;;;;11.95;9.70;;;9.00;99.90;;;;;;5079774;28;20086;-80
2022/05/03 05:00:15;;;;;;;11.13;8.75;;;9.00;99.90;;;;;;5078365;28;20217;-80
2022/05/03 05:02:41;;;;;;;11.65;10.43;;;9.10;99.90;;;;;;5079317;28;20126;-80
2022/05/03 05:05:07;;;;;;;8.85;8.05;;;9.10;99.90;;;;;;5079023;28;20344;-80
2022/05/03 05:07:33;;;;;;;10.70;8.40;;;9.10;99.90;;;;;;5061190;28;20097;-80
2022/05/03 05:12:42;;;;;;;18.90;13.18;;;9.10;99.90;;;;;;5060975;28;20244;-79
2022/05/03 05:15:08;;;;;;;13.45;12.07;;;9.20;99.90;;;;;;5059885;28;20375;-80
2022/05/03 05:17:34;;;;;;;16.48;13.52;;;9.20;99.90;;;;;;5083565;28;20078;-79
2022/05/03 05:20:00;;;;;;;19.40;14.88;;;9.30;99.90;;;;;;5083419;28;20119;-80
2022/05/03 05:22:25;;;;;;;19.98;16.58;;;9.30;99.90;;;;;;5084440;28;20118;-80
2022/05/03 05:24:51;;;;;;;26.05;15.48;;;9.40;99.90;;;;;;5083150;28;20040;-80
2022/05/03 05:27:17;;;;;;;14.35;12.85;;;9.40;99.90;;;;;;5083164;28;20043;-80
2022/05/03 05:29:43;;;;;;;14.05;10.77;;;9.50;99.90;;;;;;5082772;28;20044;-81
2022/05/03 05:32:09;;;;;;;15.82;14.13;;;9.50;99.90;;;;;;5082974;28;20052;-80
2022/05/03 05:34:35;;;;;;;13.77;11.73;;;9.50;99.90;;;;;;5083148;28;20051;-80
2022/05/03 05:37:01;;;;;;;12.70;11.32;;;9.50;99.90;;;;;;5083144;28;20044;-80
2022/05/03 05:39:26;;;;;;;16.17;11.93;;;9.50;99.90;;;;;;5083126;28;20051;-80
2022/05/03 05:41:59;;;;;;;18.27;10.88;;;9.60;99.90;;;;;;5083427;28;20040;-80
2022/05/03 05:44:30;;;;;;;17.20;11.63;;;9.60;99.90;;;;;;5081770;28;20040;-79
2022/05/03 05:46:55;;;;;;;16.23;9.63;;;9.60;99.90;;;;;;5082835;28;20827;-79
2022/05/03 05:49:21;;;;;;;11.13;9.15;;;9.60;99.90;;;;;;5082824;28;20062;-80
2022/05/03 05:51:47;;;;;;;10.55;7.88;;;9.60;99.90;;;;;;5082632;28;20609;-79
2022/05/03 05:54:13;;;;;;;11.57;7.22;;;9.70;99.90;;;;;;5082320;28;20044;-80
2022/05/03 05:56:42;;;;;;;10.23;7.28;;;9.60;99.90;;;;;;5083044;28;20105;-80
2022/05/03 05:59:08;;;;;;;10.57;6.20;;;9.60;99.90;;;;;;5082713;28;20048;-80
2022/05/03 06:01:38;;;;;;;13.45;6.78;;;9.60;99.90;;;;;;5082289;28;20440;-80
2022/05/03 06:04:04;;;;;;;6.40;4.82;;;9.70;99.90;;;;;;5063672;28;20054;-80
2022/05/03 06:06:32;;;;;;;18.70;4.13;;;9.70;99.90;;;;;;5083263;28;20048;-80
2022/05/03 06:09:02;;;;;;;4.07;3.63;;;9.70;99.90;;;;;;5082090;28;20524;-80
2022/05/03 06:11:29;;;;;;;3.67;3.35;;;9.60;99.90;;;;;;5083348;28;20426;-80
2022/05/03 06:13:54;;;;;;;3.85;3.47;;;9.60;99.90;;;;;;5082393;28;20048;-80
2022/05/03 06:16:20;;;;;;;3.47;3.22;;;9.60;99.90;;;;;;5081120;28;20999;-80
2022/05/03 06:18:46;;;;;;;5.47;3.70;;;9.60;99.90;;;;;;5082659;28;20036;-80
2022/05/03 06:21:13;;;;;;;9.95;3.30;;;9.50;99.90;;;;;;5081674;28;20229;-80
2022/05/03 06:23:38;;;;;;;3.08;2.63;;;9.50;99.90;;;;;;5082852;28;20036;-80
2022/05/03 06:26:05;;;;;;;6.20;3.70;;;9.50;99.90;;;;;;5081091;28;20042;-80
2022/05/03 06:28:32;;;;;;;5.35;4.68;;;9.50;99.90;;;;;;5082636;28;20043;-79
2022/05/03 06:30:57;;;;;;;3.60;3.22;;;9.50;99.90;;;;;;5081615;28;20040;-80
2022/05/03 06:33:23;;;;;;;16.77;3.63;;;9.50;99.90;;;;;;5081607;28;20074;-80
2022/05/03 06:35:48;;;;;;;6.60;3.72;;;9.50;99.90;;;;;;5082219;28;20091;-80
2022/05/03 06:38:14;;;;;;;2.35;2.08;;;9.40;99.90;;;;;;5081411;28;20533;-80
2022/05/03 06:40:39;;;;;;;6.15;2.33;;;9.50;99.90;;;;;;5081733;28;20494;-80
2022/05/03 06:43:06;;;;;;;2.70;2.50;;;9.40;99.90;;;;;;5081910;28;20097;-79
2022/05/03 06:45:31;;;;;;;3.17;1.95;;;9.50;99.90;;;;;;5080767;28;20063;-80
2022/05/03 06:47:57;;;;;;;4.30;2.38;;;9.40;99.90;;;;;;5082467;28;20044;-80
2022/05/03 06:50:22;;;;;;;5.47;2.85;;;9.40;99.90;;;;;;5081345;28;20044;-79
2022/05/03 06:52:48;;;;;;;16.42;3.75;;;9.50;99.90;;;;;;5081617;28;20068;-80
2022/05/03 06:55:14;;;;;;;2.60;2.13;;;9.50;99.90;;;;;;5081405;28;20142;-80
2022/05/03 06:57:40;;;;;;;6.88;3.25;;;9.40;99.90;;;;;;5081538;28;20177;-80
2022/05/03 07:00:07;;;;;;;2.33;2.20;;;9.40;99.90;;;;;;5080690;28;20040;-80
2022/05/03 07:02:33;;;;;;;3.63;2.35;;;9.50;99.90;;;;;;5081409;28;20548;-81
2022/05/03 07:04:59;;;;;;;2.58;2.35;;;9.50;99.90;;;;;;5081827;28;20075;-80
2022/05/03 07:07:26;;;;;;;8.50;3.13;;;9.50;99.90;;;;;;5080973;28;20050;-80
2022/05/03 07:09:52;;;;;;;5.53;2.67;;;9.50;99.90;;;;;;5081016;28;20302;-80
2022/05/03 07:12:18;;;;;;;3.42;2.20;;;9.50;99.90;;;;;;5063129;28;20075;-79
2022/05/03 07:14:44;;;;;;;5.47;2.40;;;9.50;99.90;;;;;;5080284;28;20531;-80
2022/05/03 07:22:45;;;;;;;4.18;2.15;;;9.50;99.90;;;;;;5081341;28;20040;-80
2022/05/03 07:22:45;;;;;;;4.80;3.15;;;9.60;99.90;;;;;;5080913;28;20669;-80
2022/05/03 07:25:10;;;;;;;9.40;3.15;;;9.60;99.90;;;;;;5081080;28;20444;-79
2022/05/03 07:27:36;;;;;;;3.53;2.10;;;9.60;99.90;;;;;;5080694;28;20036;-80
2022/05/03 07:30:02;;;;;;;2.75;2.50;;;9.60;99.90;;;;;;5080114;28;20040;-80
2022/05/03 07:32:28;;;;;;;3.17;2.00;;;9.60;99.90;;;;;;5080969;28;20040;-80
2022/05/03 07:34:53;;;;;;;11.35;3.17;;;9.60;99.90;;;;;;5062270;28;20047;-80
2022/05/03 07:37:19;;;;;;;11.45;2.10;;;9.70;99.90;;;;;;5063040;28;20071;-80
2022/05/03 07:39:44;;;;;;;17.58;3.10;;;9.70;99.90;;;;;;5079798;28;20481;-80
2022/05/03 07:42:13;;;;;;;2.70;1.75;;;9.70;99.90;;;;;;5080711;28;20040;-80
2022/05/03 07:44:39;;;;;;;2.30;2.13;;;9.70;99.90;;;;;;5061425;28;20040;-80
2022/05/03 07:47:04;;;;;;;6.95;2.17;;;9.70;99.90;;;;;;5079915;28;20046;-80
2022/05/03 07:49:30;;;;;;;13.73;3.28;;;9.70;99.90;;;;;;5063111;28;20131;-79
2022/05/03 07:51:56;;;;;;;1.50;1.40;;;9.80;99.90;;;;;;5080933;28;20090;-80
2022/05/03 07:54:21;;;;;;;2.83;1.67;;;9.80;99.90;;;;;;5062674;28;20051;-80
2022/05/03 07:56:47;;;;;;;7.72;3.17;;;9.80;99.90;;;;;;5080289;28;20540;-80
2022/05/03 07:59:13;;;;;;;8.15;2.10;;;9.80;99.90;;;;;;5079131;28;20040;-80
2022/05/03 08:01:40;;;;;;;11.18;3.15;;;9.80;99.90;;;;;;5080890;28;20070;-80
2022/05/03 08:04:06;;;;;;;2.65;2.00;;;9.80;99.90;;;;;;5079847;28;20453;-80
2022/05/03 08:06:32;;;;;;;13.20;2.85;;;9.90;99.90;;;;;;5080697;28;20054;-80
2022/05/03 08:08:58;;;;;;;11.10;2.10;;;9.90;99.90;;;;;;5080273;28;20471;-79
2022/05/03 08:11:24;;;;;;;6.50;2.20;;;9.90;99.90;;;;;;5080017;28;20058;-80
2022/05/03 08:13:52;;;;;;;4.78;2.95;;;9.90;99.90;;;;;;5061138;28;20467;-79
2022/05/03 08:16:22;;;;;;;4.80;2.58;;;10.00;99.90;;;;;;5079781;28;20131;-79
2022/05/03 08:18:48;;;;;;;11.27;2.75;;;10.00;99.90;;;;;;5080370;28;20118;-80
2022/05/03 08:21:15;;;;;;;5.70;2.95;;;10.10;99.90;;;;;;5079722;28;20518;-80
2022/05/03 08:23:40;;;;;;;8.10;1.83;;;10.10;99.90;;;;;;5080309;28;20040;-80
2022/05/03 08:26:06;;;;;;;12.48;2.30;;;10.20;99.90;;;;;;5061434;28;20032;-80
2022/05/03 08:28:33;;;;;;;13.20;3.58;;;10.20;99.90;;;;;;5080169;28;20096;-80
2022/05/03 08:30:59;;;;;;;3.38;3.08;;;10.30;99.90;;;;;;5079066;28;20040;-80
2022/05/03 08:33:26;;;;;;;10.10;2.28;;;10.30;99.90;;;;;;5061294;28;20117;-80
2022/05/03 08:35:52;;;;;;;4.95;2.60;;;10.30;99.90;;;;;;5079849;28;20344;-80
2022/05/03 08:43:46;;;;;;;2.85;2.13;;;10.30;99.90;;;;;;5079162;28;20079;-80
2022/05/03 08:46:12;;;;;;;5.10;2.05;;;10.40;99.90;;;;;;5078701;28;20044;-80
2022/05/03 08:48:42;;;;;;;2.78;1.83;;;10.40;99.90;;;;;;5080030;28;20053;-80
2022/05/03 08:51:15;;;;;;;2.97;2.13;;;10.40;99.90;;;;;;5060655;28;20052;-80
2022/05/03 08:53:41;;;;;;;5.18;2.17;;;10.50;99.90;;;;;;5061403;28;20125;-80
2022/05/03 08:56:06;;;;;;;5.13;2.28;;;10.50;99.90;;;;;;5079207;28;20127;-80
2022/05/03 08:58:33;;;;;;;2.42;1.23;;;10.50;99.90;;;;;;5079784;28;20584;-80
2022/05/03 09:00:58;;;;;;;1.98;1.77;;;10.50;99.90;;;;;;5079003;28;20048;-80
2022/05/03 09:03:24;;;;;;;5.97;1.90;;;10.50;99.90;;;;;;5061226;28;20052;-80
2022/05/03 09:05:52;;;;;;;1.27;1.20;;;10.60;99.90;;;;;;5079418;28;20048;-80
2022/05/03 09:08:22;;;;;;;6.18;2.65;;;10.60;99.90;;;;;;5079078;28;20060;-80
2022/05/03 09:10:49;;;;;;;9.73;2.28;;;10.60;99.90;;;;;;5079319;28;20063;-80
2022/05/03 09:13:22;;;;;;;4.18;2.45;;;10.60;99.90;;;;;;5079460;28;20048;-80
2022/05/03 09:15:55;;;;;;;0.98;0.98;;;10.60;99.90;;;;;;5059715;28;20056;-80
2022/05/03 09:18:31;;;;;;;1.55;1.00;;;10.70;99.90;;;;;;5060909;28;20619;-80
2022/05/03 09:23:47;;;;;;;3.95;1.55;;;10.70;99.90;;;;;;5078751;28;20192;-80
2022/05/03 09:26:15;;;;;;;1.15;1.15;;;10.70;99.90;;;;;;5060941;28;20044;-80
2022/05/03 09:29:01;;;;;;;4.88;1.33;;;10.80;99.90;;;;;;5078430;28;20473;-80
2022/05/03 09:31:33;;;;;;;5.05;2.35;;;10.80;99.90;;;;;;5079717;28;20044;-80
2022/05/03 09:34:00;;;;;;;;;;;10.80;99.90;;;;;;5080153;28;20110;-80
2022/05/03 09:36:26;;;;;;;3.58;1.42;;;10.80;99.90;;;;;;5079570;28;19920;-80
2022/05/03 09:38:55;;;;;;;3.78;1.55;;;10.90;99.90;;;;;;5061212;28;20032;-80
2022/05/03 09:41:21;;;;;;;3.15;2.03;;;10.90;99.90;;;;;;5060553;28;20105;-80
2022/05/03 09:44:07;;;;;;;1.30;1.20;;;10.90;99.90;;;;;;5077923;28;20422;-80
2022/05/03 09:46:51;;;;;;;11.57;2.13;;;10.90;99.90;;;;;;5079540;28;20040;-81
2022/05/03 09:49:35;;;;;;;3.53;1.73;;;10.90;99.90;;;;;;5078422;28;20044;-80
2022/05/03 09:52:00;;;;;;;2.67;1.48;;;11.00;99.90;;;;;;5061055;28;20117;-78
2022/05/03 09:54:28;;;;;;;2.15;1.60;;;11.00;99.90;;;;;;5079593;28;20032;-80
2022/05/03 09:56:54;;;;;;;21.55;2.55;;;11.00;99.90;;;;;;5078801;28;20609;-80
2022/05/03 09:59:20;;;;;;;4.45;1.98;;;11.10;99.90;;;;;;5078208;28;20119;-80
2022/05/03 10:01:46;;;;;;;2.60;1.25;;;11.10;99.90;;;;;;5080073;28;20123;-80
2022/05/03 10:04:13;;;;;;;1.90;1.17;;;11.10;99.90;;;;;;5082796;28;20039;-81
2022/05/03 10:06:40;;;;;;;4.43;2.15;;;11.10;99.90;;;;;;5064161;28;20028;-80
2022/05/03 10:09:07;;;;;;;4.50;2.55;;;11.10;99.90;;;;;;5081635;28;20048;-81
2022/05/03 10:11:36;;;;;;;2.20;1.48;;;11.20;99.90;;;;;;5064541;28;20091;-80
2022/05/03 10:14:02;;;;;;;2.03;1.17;;;11.10;99.90;;;;;;5081029;28;20595;-81
2022/05/03 10:22:04;;;;;;;2.78;1.33;;;11.20;99.90;;;;;;5082699;28;20048;-83
2022/05/03 10:24:31;;;;;;;3.63;1.38;;;11.30;99.90;;;;;;5064321;28;20320;-83
2022/05/03 10:27:02;;;;;;;5.97;1.77;;;11.30;99.90;;;;;;5082677;28;20036;-82
2022/05/03 10:29:29;;;;;;;7.43;1.08;;;11.30;99.90;;;;;;5081866;28;20330;-80
2022/05/03 10:32:00;;;;;;;1.70;1.23;;;11.30;99.90;;;;;;5082480;28;20046;-80
2022/05/03 10:34:55;;;;;;;1.10;1.00;;;11.30;99.90;;;;;;5082359;28;20040;-80
2022/05/03 10:37:33;;;;;;;1.13;1.05;;;11.30;99.90;;;;;;5081738;28;20044;-80
2022/05/03 10:40:12;;;;;;;3.60;1.55;;;11.30;99.90;;;;;;5081993;28;20670;-81
2022/05/03 10:42:37;;;;;;;1.20;0.98;;;11.40;99.90;;;;;;5047369;28;20090;-81
2022/05/03 10:45:06;;;;;;;3.35;0.98;;;11.40;99.90;;;;;;5081252;28;20040;-80
2022/05/03 10:47:51;;;;;;;2.88;1.90;;;11.40;99.90;;;;;;5081514;28;20086;-80
2022/05/03 10:50:16;;;;;;;1.63;1.10;;;11.50;99.90;;;;;;5081509;28;20078;-80
2022/05/03 10:52:54;;;;;;;4.90;1.35;;;11.50;99.90;;;;;;5081703;28;20498;-80
2022/05/03 10:55:19;;;;;;;3.20;1.38;;;11.60;99.90;;;;;;5081289;28;20044;-80
2022/05/03 10:58:20;;;;;;;2.67;1.27;;;11.60;99.90;;;;;;5081442;28;20040;-80
2022/05/03 11:01:11;;;;;;;1.75;0.65;;;11.70;99.90;;;;;;5080759;28;20118;-81
2022/05/03 11:03:51;;;;;;;1.08;1.02;;;11.70;99.90;;;;;;5062534;28;20067;-81
2022/05/03 11:06:19;;;;;;;0.88;0.68;;;11.70;99.90;;;;;;5081108;28;20309;-80
2022/05/03 11:11:37;;;;;;;4.85;1.67;;;11.70;99.90;;;;;;5063258;28;20048;-80
2022/05/03 11:14:18;;;;;;;1.23;1.13;;;11.70;99.90;;;;;;5079165;28;20132;-80
2022/05/03 11:16:47;;;;;;;1.08;0.98;;;11.70;99.90;;;;;;5081080;28;20072;-80
2022/05/03 11:19:14;;;;;;;1.05;1.02;;;11.70;99.90;;;;;;5080968;28;20082;-81
2022/05/03 11:21:41;;;;;;;5.10;1.00;;;11.70;99.90;;;;;;5081040;28;20221;-80
2022/05/03 11:24:22;;;;;;;1.13;1.13;;;11.70;99.90;;;;;;5062510;28;20051;-81
2022/05/03 11:26:50;;;;;;;2.75;1.13;;;11.70;99.90;;;;;;5081293;28;20040;-81
2022/05/03 11:29:16;;;;;;;1.15;1.05;;;11.70;99.90;;;;;;5061288;28;20125;-82
2022/05/03 11:31:47;;;;;;;3.45;0.82;;;11.80;99.90;;;;;;5063399;28;20124;-81
2022/05/03 11:34:13;;;;;;;2.13;1.38;;;11.80;99.90;;;;;;5080196;28;20040;-81
2022/05/03 11:36:42;;;;;;;1.02;0.88;;;11.80;99.90;;;;;;5081026;28;20405;-81
2022/05/03 11:39:09;;;;;;;1.83;1.15;;;11.90;99.90;;;;;;5080440;28;20491;-81
2022/05/03 11:41:36;;;;;;;0.40;0.40;;;11.90;99.90;;;;;;5080809;28;20040;-81
2022/05/03 11:44:02;;;;;;;1.85;1.58;;;11.90;99.90;;;;;;5079366;28;20040;-81
2022/05/03 11:46:28;;;;;;;3.95;1.13;;;11.90;99.90;;;;;;5080684;28;20123;-81
2022/05/03 11:49:01;;;;;;;2.25;1.35;;;11.90;99.90;;;;;;5080816;28;20142;-80
2022/05/03 11:57:10;;;;;;;4.65;2.10;;;11.90;99.90;;;;;;5080178;28;20663;-80
2022/05/03 11:59:36;;;;;;;1.08;1.02;;;11.90;99.90;;;;;;5079250;28;20032;-81
2022/05/03 12:02:18;;;;;;;1.08;0.70;;;11.90;99.90;;;;;;5080442;28;20035;-82
2022/05/03 12:04:59;;;;;;;;;;;11.90;99.90;;;;;;5080802;28;20051;-81
2022/05/03 12:07:24;;;;;;;7.75;0.82;;;12.00;99.90;;;;;;5079443;28;19927;-81
2022/05/03 12:09:50;;;;;;;2.35;1.05;;;12.00;99.90;;;;;;5080091;28;20056;-81
2022/05/03 12:12:44;;;;;;;2.75;0.70;;;12.00;99.90;;;;;;5080170;28;20323;-81
2022/05/03 12:15:20;;;;;;;1.45;0.95;;;12.00;99.90;;;;;;5060704;28;20077;-80
2022/05/03 12:17:52;;;;;;;6.07;1.13;;;12.10;99.90;;;;;;5080354;28;20097;-80
2022/05/03 12:20:18;;;;;;;1.58;1.10;;;12.10;99.90;;;;;;5079186;28;20059;-80
2022/05/03 12:22:43;;;;;;;2.58;1.08;;;12.10;99.90;;;;;;5045846;28;20494;-81
2022/05/03 12:25:09;;;;;;;1.75;1.08;;;12.10;99.90;;;;;;5079056;28;20068;-80
2022/05/03 12:27:35;;;;;;;1.48;0.90;;;12.10;99.90;;;;;;5061512;28;20119;-80
2022/05/03 12:30:11;;;;;;;1.25;0.93;;;12.10;99.90;;;;;;5079193;28;20040;-80
2022/05/03 12:32:39;;;;;;;10.18;1.23;;;12.10;99.90;;;;;;5080099;28;21010;-81
2022/05/03 12:35:05;;;;;;;3.05;1.10;;;12.10;99.90;;;;;;5079207;28;20449;-81
2022/05/03 12:37:30;;;;;;;0.68;0.68;;;12.00;99.90;;;;;;5080273;28;20036;-81
2022/05/03 12:40:00;;;;;;;1.88;1.30;;;12.00;99.90;;;;;;5080224;28;20044;-81
2022/05/03 12:42:26;;;;;;;5.03;0.90;;;12.00;99.90;;;;;;5080615;28;20036;-81
2022/05/03 12:44:54;;;;;;;1.60;1.15;;;11.90;99.90;;;;;;5078365;28;20047;-80
2022/05/03 12:47:22;;;;;;;2.70;0.95;;;11.90;99.90;;;;;;5079165;28;20782;-81
2022/05/03 12:49:48;;;;;;;2.47;1.33;;;12.00;99.90;;;;;;5079521;28;20285;-81
2022/05/03 12:52:14;;;;;;;1.08;0.75;;;12.00;99.90;;;;;;5079585;28;20428;-81
2022/05/03 12:54:41;;;;;;;0.70;0.70;;;12.10;99.90;;;;;;5061833;28;20074;-81
2022/05/03 12:59:54;;;;;;;0.77;0.77;;;12.00;99.90;;;;;;5078331;28;20178;-81
2022/05/03 13:02:19;;;;;;;3.25;1.23;;;12.00;99.90;;;;;;5079031;28;20314;-81
2022/05/03 13:04:45;;;;;;;1.25;1.15;;;12.00;99.90;;;;;;5079669;28;20177;-81
2022/05/03 13:07:11;;;;;;;1.85;1.30;;;11.90;99.90;;;;;;5079524;28;20046;-81
2022/05/03 13:09:36;;;;;;;1.02;1.02;;;11.90;99.90;;;;;;5079035;28;20143;-81
2022/05/03 13:12:02;;;;;;;7.45;1.35;;;11.90;99.90;;;;;;5079684;28;20571;-81
2022/05/03 13:14:29;;;;;;;0.95;0.85;;;11.80;99.90;;;;;;5078637;28;20047;-81
2022/05/03 13:16:55;;;;;;;0.98;0.85;;;11.90;99.90;;;;;;5079381;28;20035;-81
2022/05/03 13:19:21;;;;;;;2.50;1.20;;;11.80;99.90;;;;;;5079200;28;20491;-81
2022/05/03 13:21:47;;;;;;;1.40;1.00;;;11.90;99.90;;;;;;5061203;28;20074;-81
2022/05/03 13:24:13;;;;;;;1.40;0.85;;;11.90;99.90;;;;;;5079598;28;20121;-81
2022/05/03 13:26:40;;;;;;;4.15;1.00;;;12.00;99.90;;;;;;5060576;28;20068;-80
2022/05/03 13:29:11;;;;;;;1.08;0.95;;;12.00;99.90;;;;;;5077988;28;20040;-81
2022/05/03 13:31:40;;;;;;;0.85;0.63;;;11.90;99.90;;;;;;5078749;28;20410;-80
2022/05/03 13:34:08;;;;;;;8.70;1.25;;;11.90;99.90;;;;;;5061549;28;20040;-81
2022/05/03 13:42:03;;;;;;;2.28;1.65;;;11.90;99.90;;;;;;5083353;28;20127;-81
2022/05/03 13:44:28;;;;;;;1.42;1.15;;;11.90;99.90;;;;;;5064225;28;20042;-81
2022/05/03 13:46:54;;;;;;;1.80;0.80;;;11.90;99.90;;;;;;5050558;28;20056;-81
2022/05/03 13:49:20;;;;;;;7.07;1.85;;;11.90;99.90;;;;;;5062862;28;20504;-80